Time;durP1;ratioP1;P1;durP2;ratioP2;P2;SDS_P1;SDS_P2;PMS_P1;PMS_P2;Temp;Humidity;BMP_temperature;BMP_pressure;BME280_temperature;BME280_humidity;BME280_pressure;Samples;Min_cycle;Max_cycle;Signal;HPM_P1;HPM_P2
2022/01/23 00:00:38;;;;;;;38.30;28.77;;;;;;;5.04;88.45;103387.50;5051344;28;20079;-68
2022/01/23 00:03:09;;;;;;;37.03;28.40;;;;;;;5.04;88.47;103387.50;5053944;28;20099;-68
2022/01/23 00:05:37;;;;;;;36.17;27.52;;;;;;;5.02;88.59;103389.44;5053755;28;20025;-68
2022/01/23 00:08:03;;;;;;;35.92;27.92;;;;;;;5.01;88.84;103385.03;5053722;28;20112;-68
2022/01/23 00:10:29;;;;;;;38.58;27.58;;;;;;;4.99;89.11;103378.09;5053467;28;20025;-68
2022/01/23 00:13:06;;;;;;;35.17;27.95;;;;;;;5.00;88.85;103386.03;5053306;28;20047;-68
2022/01/23 00:18:17;;;;;;;39.00;29.20;;;;;;;4.97;89.06;103370.19;5053071;28;20217;-68
2022/01/23 00:20:42;;;;;;;42.38;29.25;;;;;;;4.96;88.77;103366.63;5053221;28;20125;-68
2022/01/23 00:23:15;;;;;;;37.33;28.45;;;;;;;4.92;88.85;103365.19;5053458;28;20028;-69
2022/01/23 00:31:08;;;;;;;36.92;27.20;;;;;;;4.88;89.32;103370.94;5052725;28;20086;-68
2022/01/23 00:33:33;;;;;;;38.35;27.92;;;;;;;4.89;89.57;103364.56;5053227;28;20029;-68
2022/01/23 00:35:59;;;;;;;34.58;27.80;;;;;;;4.90;89.16;103361.75;5053183;28;20110;-68
2022/01/23 00:38:24;;;;;;;37.97;28.10;;;;;;;4.89;88.91;103353.84;5053207;28;20091;-68
2022/01/23 00:40:49;;;;;;;34.67;27.73;;;;;;;4.85;89.48;103345.19;5053118;28;20021;-68
2022/01/23 00:43:28;;;;;;;40.63;28.17;;;;;;;4.84;89.45;103364.94;5052954;28;20510;-68
2022/01/23 00:46:11;;;;;;;35.72;27.17;;;;;;;4.86;89.67;103362.13;5053171;28;20029;-68
2022/01/23 00:48:41;;;;;;;39.90;27.75;;;;;;;4.86;89.48;103356.78;5053060;28;20029;-68
2022/01/23 00:51:06;;;;;;;35.78;28.48;;;;;;;4.85;89.81;103361.28;5052545;28;20036;-68
2022/01/23 00:53:31;;;;;;;38.88;28.40;;;;;;;4.85;89.73;103349.72;5052928;28;20033;-68
2022/01/23 00:55:58;;;;;;;39.97;27.27;;;;;;;4.86;89.61;103348.72;5052895;28;20521;-68
2022/01/23 00:58:23;;;;;;;36.20;26.65;;;;;;;4.86;88.97;103357.66;5052552;28;20036;-68
2022/01/23 01:00:49;;;;;;;35.13;27.85;;;;;;;4.88;89.45;103354.84;5050243;28;20025;-68
2022/01/23 01:03:14;;;;;;;35.80;27.42;;;;;;;4.90;89.25;103347.50;5052708;28;20076;-68
2022/01/23 01:05:39;;;;;;;36.08;26.23;;;;;;;4.90;89.14;103347.50;5052700;28;20063;-68
2022/01/23 01:08:06;;;;;;;37.97;27.83;;;;;;;4.89;89.19;103351.16;5052419;28;20025;-68
2022/01/23 01:10:38;;;;;;;36.40;25.73;;;;;;;4.90;89.55;103355.56;5052386;28;20025;-68
2022/01/23 01:13:05;;;;;;;30.50;25.85;;;;;;;4.92;89.49;103349.09;5052529;28;20032;-68
2022/01/23 01:31:28;;;;;;;32.83;26.10;;;;;;;4.93;88.75;103341.88;5052202;28;20110;-68
2022/01/23 01:34:15;;;;;;;33.78;26.00;;;;;;;4.95;89.43;103356.88;5052410;28;20044;-68
2022/01/23 01:36:52;;;;;;;34.83;26.65;;;;;;;4.97;88.99;103362.13;5052502;28;20036;-68
2022/01/23 01:39:23;;;;;;;32.88;26.42;;;;;;;4.97;89.38;103348.72;5052274;28;20033;-68
2022/01/23 01:41:49;;;;;;;34.22;25.88;;;;;;;4.96;88.81;103357.72;5052381;28;20123;-68
2022/01/23 01:44:15;;;;;;;34.50;25.70;;;;;;;4.96;88.91;103355.88;5052110;28;20113;-68
2022/01/23 01:46:41;;;;;;;36.30;26.23;;;;;;;4.96;88.88;103360.41;5052194;28;20025;-68
2022/01/23 01:49:07;;;;;;;34.80;26.45;;;;;;;4.95;88.87;103364.94;5055045;28;20064;-69
2022/01/23 01:51:33;;;;;;;33.88;25.88;;;;;;;4.92;89.37;103365.19;5055970;28;20047;-68
2022/01/23 01:54:11;;;;;;;34.80;26.15;;;;;;;4.92;89.15;103367.00;5056260;28;20021;-69
2022/01/23 01:56:49;;;;;;;35.40;27.38;;;;;;;4.96;89.11;103368.47;5056276;28;20040;-69
2022/01/23 01:59:33;;;;;;;32.40;25.83;;;;;;;4.97;89.33;103370.19;5055987;28;20087;-69
2022/01/23 02:09:55;;;;;;;33.35;25.02;;;;;;;4.99;88.65;103378.09;5056018;28;20036;-68
2022/01/23 02:23:23;;;;;;;37.75;27.75;;;;;;;4.86;88.84;103356.78;5055815;28;20067;-68
2022/01/23 02:55:41;;;;;;;33.90;25.30;;;;;;;4.82;89.85;103328.50;5054671;28;20040;-68
2022/01/23 02:58:10;;;;;;;31.02;24.23;;;;;;;4.81;89.80;103324.13;5054819;28;20056;-69
2022/01/23 03:00:47;;;;;;;32.22;23.67;;;;;;;4.85;89.55;103325.56;5050945;28;20025;-68
2022/01/23 03:03:15;;;;;;;34.13;24.77;;;;;;;4.83;89.74;103319.47;5055142;28;20052;-67
2022/01/23 03:05:41;;;;;;;34.22;25.30;;;;;;;4.83;89.90;103323.03;5054709;28;20032;-68
2022/01/23 03:08:24;;;;;;;31.10;23.33;;;;;;;4.84;89.50;103329.22;5054627;28;20443;-68
2022/01/23 03:11:06;;;;;;;33.03;24.23;;;;;;;4.83;89.33;103324.81;5054873;28;20040;-68
2022/01/23 03:24:29;;;;;;;34.20;24.48;;;;;;;4.83;89.73;103327.50;5054192;28;20035;-68
2022/01/23 03:35:05;;;;;;;33.20;24.88;;;;;;;4.86;89.44;103335.31;5051595;28;20072;-68
2022/01/23 03:37:30;;;;;;;32.08;23.70;;;;;;;4.86;89.35;103340.66;5053876;28;20525;-69
2022/01/23 03:39:56;;;;;;;35.20;24.73;;;;;;;4.83;88.83;103343.59;5054376;28;20107;-68
2022/01/23 03:42:23;;;;;;;35.33;25.45;;;;;;;4.81;89.71;103343.72;5054298;28;20024;-68
2022/01/23 03:45:32;;;;;;;34.08;25.33;;;;;;;4.78;89.62;103342.16;5054249;28;20028;-68
2022/01/23 03:47:41;;;;;;;35.28;25.20;;;;;;;4.84;89.75;103337.28;5053208;28;20041;-68
2022/01/23 03:50:09;;;;;;;35.95;25.77;;;;;;;4.82;89.47;103341.94;5054159;28;20039;-68
2022/01/23 03:52:35;;;;;;;35.67;25.92;;;;;;;4.83;89.33;103343.59;5053844;28;20506;-69
2022/01/23 03:55:03;;;;;;;35.00;26.13;;;;;;;4.84;89.42;103345.31;5053980;28;20057;-68
2022/01/23 03:57:28;;;;;;;36.97;25.83;;;;;;;4.83;89.71;103341.78;5053741;28;20036;-68
2022/01/23 03:59:54;;;;;;;35.55;26.15;;;;;;;4.84;89.66;103348.00;5053956;28;20032;-68
2022/01/23 04:02:20;;;;;;;36.78;26.35;;;;;;;4.83;90.04;103352.53;5051000;28;20496;-68
2022/01/23 04:04:45;;;;;;;34.25;27.00;;;;;;;4.83;89.48;103348.97;5053831;28;20057;-68
2022/01/23 04:07:16;;;;;;;34.88;26.00;;;;;;;4.82;89.48;103348.13;5053777;28;20061;-68
2022/01/23 04:09:42;;;;;;;34.33;26.92;;;;;;;4.84;90.05;103353.38;5053457;28;20033;-68
2022/01/23 04:12:10;;;;;;;36.67;25.50;;;;;;;4.84;89.13;103358.75;5051953;28;20083;-68
2022/01/23 04:14:39;;;;;;;34.85;26.30;;;;;;;4.83;89.00;103357.91;5053402;28;20028;-68
2022/01/23 04:17:36;;;;;;;38.15;25.52;;;;;;;4.83;89.35;103359.72;5053561;28;20464;-68
2022/01/23 04:45:17;;;;;;;35.97;27.27;;;;;;;4.86;89.33;103359.44;5052955;28;20044;-68
2022/01/23 05:00:10;;;;;;;38.40;28.73;;;;;;;4.82;89.55;103371.44;5052834;28;20385;-68
2022/01/23 05:05:07;;;;;;;41.53;29.27;;;;;;;4.80;89.31;103379.56;5052757;28;20042;-68
2022/01/23 05:07:33;;;;;;;38.92;29.45;;;;;;;4.81;89.65;103372.41;5051223;28;20381;-69
2022/01/23 05:09:58;;;;;;;38.90;28.95;;;;;;;4.83;90.00;103368.63;5068151;28;20052;-69
2022/01/23 05:12:28;;;;;;;42.15;29.52;;;;;;;4.85;89.70;103363.97;5059010;28;20078;-68
2022/01/23 05:14:53;;;;;;;36.63;27.65;;;;;;;4.86;89.60;103362.13;5055243;28;20455;-68
2022/01/23 05:17:19;;;;;;;41.45;29.15;;;;;;;4.85;89.86;103363.97;5052554;28;20139;-69
2022/01/23 05:19:45;;;;;;;40.92;29.52;;;;;;;4.85;89.87;103363.97;5052314;28;20465;-68
2022/01/23 05:24:49;;;;;;;39.00;28.90;;;;;;;4.88;89.54;103360.19;5072152;28;20472;-68
2022/01/23 05:27:14;;;;;;;39.92;29.45;;;;;;;4.89;89.92;103369.94;5072474;28;20090;-68
2022/01/23 05:29:40;;;;;;;38.85;28.15;;;;;;;4.90;89.73;103372.50;5072254;28;20021;-68
2022/01/23 05:32:08;;;;;;;38.00;28.60;;;;;;;4.92;90.06;103372.38;5072418;28;20074;-68
2022/01/23 05:34:34;;;;;;;38.70;29.67;;;;;;;4.91;89.83;103363.47;5072286;28;20036;-68
2022/01/23 05:36:59;;;;;;;37.67;29.20;;;;;;;4.89;90.51;103365.44;5072499;28;20024;-68
2022/01/23 05:39:27;;;;;;;42.75;29.15;;;;;;;4.91;89.86;103370.69;5072370;28;20066;-69
2022/01/23 05:41:58;;;;;;;44.10;28.63;;;;;;;4.89;89.82;103373.50;5070218;28;20036;-68
2022/01/23 05:44:24;;;;;;;38.20;28.92;;;;;;;4.91;89.96;103373.38;5052464;28;20215;-69
2022/01/23 05:46:49;;;;;;;40.17;29.10;;;;;;;4.92;90.21;103373.25;5054189;28;20116;-69
2022/01/23 05:49:14;;;;;;;38.95;28.85;;;;;;;4.92;90.27;103373.25;5065784;28;20103;-68
2022/01/23 05:51:40;;;;;;;38.10;28.77;;;;;;;4.92;90.18;103370.56;5061578;28;20032;-68
2022/01/23 05:54:05;;;;;;;38.40;28.67;;;;;;;4.92;89.18;103369.69;5064654;28;20458;-68
2022/01/23 05:56:30;;;;;;;38.72;28.75;;;;;;;4.92;90.18;103358.94;5071144;28;20033;-69
2022/01/23 05:58:56;;;;;;;37.92;28.35;;;;;;;4.91;89.38;103362.63;5056240;28;20037;-68
2022/01/23 06:01:22;;;;;;;38.67;28.35;;;;;;;4.90;89.78;103358.22;5069634;28;20045;-69
2022/01/23 06:03:47;;;;;;;38.72;28.67;;;;;;;4.89;90.04;103353.84;5063680;28;20460;-68
2022/01/23 06:06:12;;;;;;;40.15;28.10;;;;;;;4.87;89.67;103364.69;5052601;28;20025;-68
2022/01/23 06:08:38;;;;;;;37.67;28.98;;;;;;;4.86;89.56;103362.13;5066954;28;20037;-68
2022/01/23 06:11:03;;;;;;;39.08;28.55;;;;;;;4.83;89.69;103352.53;5060753;28;20357;-68
2022/01/23 06:13:29;;;;;;;39.03;28.33;;;;;;;4.84;89.99;103356.06;5060181;28;20099;-68
2022/01/23 06:15:54;;;;;;;40.10;29.52;;;;;;;4.85;89.72;103361.28;5060295;28;20098;-69
2022/01/23 06:18:20;;;;;;;38.05;29.27;;;;;;;4.86;89.73;103364.81;5063540;28;20103;-69
2022/01/23 06:20:45;;;;;;;39.75;29.40;;;;;;;4.87;90.46;103363.84;5059440;28;20430;-69
2022/01/23 06:23:12;;;;;;;42.33;29.00;;;;;;;4.87;90.99;103361.16;5062518;28;20059;-69
2022/01/23 06:25:41;;;;;;;41.78;29.45;;;;;;;4.87;90.79;103371.91;5063192;28;20062;-69
2022/01/23 06:28:07;;;;;;;40.53;29.92;;;;;;;4.89;90.10;103365.44;5059961;28;20048;-69
2022/01/23 06:30:33;;;;;;;43.17;30.20;;;;;;;4.88;90.12;103360.19;5059166;28;20044;-69
2022/01/23 06:32:59;;;;;;;39.53;29.08;;;;;;;4.88;90.54;103368.25;5055627;28;20044;-69
2022/01/23 06:35:25;;;;;;;40.95;29.42;;;;;;;4.87;89.94;103364.69;5065331;28;20055;-69
2022/01/23 06:37:50;;;;;;;40.60;29.95;;;;;;;4.85;90.39;103363.13;5059065;28;20075;-69
2022/01/23 06:40:15;;;;;;;41.25;29.60;;;;;;;4.83;90.07;103362.38;5062987;28;20085;-68
2022/01/23 06:42:41;;;;;;;40.03;29.27;;;;;;;4.83;90.62;103367.75;5056567;28;20043;-68
2022/01/23 06:45:06;;;;;;;38.80;29.33;;;;;;;4.82;90.17;103374.97;5064740;28;20036;-68
2022/01/23 06:47:32;;;;;;;38.20;29.13;;;;;;;4.84;90.12;103378.34;5059936;28;20029;-68
2022/01/23 06:49:57;;;;;;;42.08;31.02;;;;;;;4.86;90.01;103381.78;5066496;28;20033;-68
2022/01/23 06:52:23;;;;;;;39.13;29.20;;;;;;;4.86;90.10;103383.59;5056429;28;20366;-68
2022/01/23 06:54:48;;;;;;;41.88;29.98;;;;;;;4.87;90.59;103388.00;5069600;28;20029;-68
2022/01/23 06:57:14;;;;;;;41.47;29.55;;;;;;;4.88;90.45;103387.88;5067534;28;20032;-68
2022/01/23 06:59:40;;;;;;;43.28;30.70;;;;;;;4.87;90.02;103386.16;5065131;28;20044;-68
2022/01/23 07:02:05;;;;;;;39.92;31.00;;;;;;;4.88;90.11;103389.72;5063013;28;20048;-68
2022/01/23 07:04:30;;;;;;;41.97;31.52;;;;;;;4.86;90.15;103386.28;5061643;28;20063;-68
2022/01/23 07:06:56;;;;;;;41.53;30.58;;;;;;;4.85;89.76;103400.69;5066359;28;20063;-68
2022/01/23 07:09:21;;;;;;;43.00;31.33;;;;;;;4.87;90.18;103406.78;5065646;28;20032;-68
2022/01/23 07:11:47;;;;;;;38.92;29.90;;;;;;;4.86;90.69;103399.69;5066189;28;20203;-68
2022/01/23 07:14:12;;;;;;;43.45;30.77;;;;;;;4.87;90.54;103402.25;5056085;28;20383;-68
2022/01/23 07:16:37;;;;;;;42.55;31.50;;;;;;;4.88;89.78;103403.97;5070522;28;20040;-68
2022/01/23 07:19:03;;;;;;;42.58;30.50;;;;;;;4.89;90.05;103412.88;5062821;28;20040;-68
2022/01/23 07:21:28;;;;;;;41.05;30.52;;;;;;;4.90;89.70;103411.91;5056136;28;20029;-68
2022/01/23 07:23:54;;;;;;;44.63;31.27;;;;;;;4.88;89.36;103409.34;5064598;28;20037;-68
2022/01/23 07:26:22;;;;;;;44.28;32.28;;;;;;;4.88;90.08;103413.88;5073494;28;20032;-68
2022/01/23 07:28:49;;;;;;;41.53;32.03;;;;;;;4.86;89.98;103413.13;5056978;28;20060;-69
2022/01/23 07:31:32;;;;;;;46.22;32.40;;;;;;;4.86;89.89;103423.84;5074156;28;20601;-68
2022/01/23 07:34:04;;;;;;;40.45;30.85;;;;;;;4.83;90.03;103424.09;5063981;28;20064;-68
2022/01/23 07:36:30;;;;;;;41.55;30.88;;;;;;;4.85;90.31;103436.41;5063633;28;20033;-68
2022/01/23 07:38:55;;;;;;;42.60;31.60;;;;;;;4.86;89.82;103426.53;5054236;28;20037;-68
2022/01/23 07:41:21;;;;;;;40.65;31.50;;;;;;;4.87;89.96;103428.25;5054043;28;20029;-68
2022/01/23 07:43:46;;;;;;;44.35;31.98;;;;;;;4.83;89.97;103432.16;5054359;28;20064;-68
2022/01/23 07:46:12;;;;;;;45.83;32.90;;;;;;;4.84;89.57;103433.84;5053169;28;20033;-68
2022/01/23 07:48:37;;;;;;;42.00;31.45;;;;;;;4.85;90.07;103446.31;5063576;28;20028;-68
2022/01/23 07:51:02;;;;;;;44.65;31.40;;;;;;;4.84;90.31;103448.13;5074129;28;20056;-68
2022/01/23 07:53:28;;;;;;;46.40;31.52;;;;;;;4.86;89.80;103442.63;5073877;28;20036;-68
2022/01/23 07:55:53;;;;;;;44.35;31.70;;;;;;;4.86;90.10;103445.31;5066820;28;20037;-68
2022/01/23 07:58:18;;;;;;;46.95;31.88;;;;;;;4.88;90.18;103446.91;5066478;28;20043;-69
2022/01/23 08:00:44;;;;;;;45.38;32.20;;;;;;;4.92;89.38;103447.50;5064866;28;20017;-69
2022/01/23 08:03:09;;;;;;;46.17;32.97;;;;;;;4.90;89.63;103441.41;5055820;28;20049;-69
2022/01/23 08:05:36;;;;;;;42.42;31.63;;;;;;;4.88;89.83;103440.69;5057717;28;20485;-69
2022/01/23 08:08:02;;;;;;;43.83;32.00;;;;;;;4.91;89.63;103440.44;5053383;28;20037;-69
2022/01/23 08:10:27;;;;;;;44.72;32.17;;;;;;;4.92;89.88;103443.00;5053480;28;20047;-72
2022/01/23 08:12:53;;;;;;;45.00;31.75;;;;;;;4.96;89.88;103440.91;5053029;28;20048;-72
2022/01/23 08:15:18;;;;;;;45.70;32.65;;;;;;;5.00;90.09;103446.88;5053331;28;20111;-71
2022/01/23 08:17:44;;;;;;;44.72;32.42;;;;;;;5.05;89.43;103442.00;5051924;28;20357;-72
2022/01/23 08:20:09;;;;;;;44.83;31.73;;;;;;;5.11;89.37;103438.81;5053488;28;20064;-77
2022/01/23 08:22:35;;;;;;;45.65;31.27;;;;;;;5.15;89.68;103442.97;5053456;28;20032;-81
2022/01/23 08:25:02;;;;;;;43.30;31.25;;;;;;;5.15;89.03;103449.19;5051944;28;20060;-76
2022/01/23 08:27:28;;;;;;;45.13;31.38;;;;;;;5.14;89.20;103449.31;5053329;28;20029;-76
2022/01/23 08:29:54;;;;;;;41.40;31.10;;;;;;;5.11;89.54;103457.59;5052937;28;20035;-80
2022/01/23 08:32:19;;;;;;;43.03;31.08;;;;;;;5.08;89.17;103453.34;5053410;28;20036;-76
2022/01/23 08:34:44;;;;;;;47.47;31.45;;;;;;;5.09;89.39;103452.38;5053041;28;20072;-75
2022/01/23 08:37:10;;;;;;;45.00;32.55;;;;;;;5.07;89.50;103457.00;5051802;28;20511;-73
2022/01/23 08:39:37;;;;;;;42.47;31.25;;;;;;;5.06;89.38;103462.50;5053219;28;20033;-76
2022/01/23 08:42:09;;;;;;;43.97;32.20;;;;;;;5.07;89.71;103466.88;5052814;28;20115;-75
2022/01/23 08:44:34;;;;;;;41.72;31.33;;;;;;;5.06;89.91;103471.41;5051708;28;20443;-72
2022/01/23 08:47:00;;;;;;;44.45;31.80;;;;;;;5.03;89.94;103482.38;5052654;28;20107;-74
2022/01/23 08:49:28;;;;;;;44.05;32.08;;;;;;;5.04;89.58;103473.38;5051608;28;20102;-73
2022/01/23 08:51:55;;;;;;;42.53;32.03;;;;;;;5.03;89.30;103474.34;5052523;28;20025;-73
2022/01/23 08:54:21;;;;;;;45.28;31.88;;;;;;;5.04;89.43;103478.75;5052795;28;20036;-73
2022/01/23 08:56:46;;;;;;;43.22;30.45;;;;;;;5.05;89.11;103475.06;5052270;28;20024;-73
2022/01/23 08:59:12;;;;;;;47.65;31.92;;;;;;;5.09;89.43;103481.88;5052349;28;20075;-72
2022/01/23 09:01:37;;;;;;;46.28;32.60;;;;;;;5.10;89.24;103483.59;5050131;28;20049;-73
2022/01/23 09:04:04;;;;;;;44.65;32.15;;;;;;;5.13;90.04;103480.66;5052209;28;20056;-72
2022/01/23 09:06:30;;;;;;;45.72;32.25;;;;;;;5.13;89.83;103480.66;5051357;28;20035;-73
2022/01/23 09:08:58;;;;;;;44.30;32.63;;;;;;;5.12;89.46;103476.28;5052674;28;20419;-72
2022/01/23 09:11:26;;;;;;;45.20;32.05;;;;;;;5.13;89.61;103474.44;5052567;28;20116;-72
2022/01/23 09:14:06;;;;;;;48.08;31.92;;;;;;;5.15;89.93;103477.88;5052338;28;20025;-71
2022/01/23 09:16:33;;;;;;;46.53;33.28;;;;;;;5.20;90.18;103477.50;5052605;28;20040;-72
2022/01/23 09:18:58;;;;;;;45.15;32.20;;;;;;;5.20;89.39;103467.59;5050939;28;20036;-73
2022/01/23 09:21:23;;;;;;;41.33;31.13;;;;;;;5.23;89.78;103472.72;5052784;28;20376;-74
2022/01/23 09:23:49;;;;;;;43.00;31.17;;;;;;;5.24;89.57;103461.00;5051960;28;20037;-73
2022/01/23 09:26:17;;;;;;;42.60;32.17;;;;;;;5.24;89.27;103470.88;5051169;28;20029;-73
2022/01/23 09:28:45;;;;;;;43.20;31.88;;;;;;;5.25;88.80;103475.28;5052246;28;20337;-74
2022/01/23 09:31:12;;;;;;;45.28;33.30;;;;;;;5.28;88.98;103469.66;5052465;28;20021;-77
2022/01/23 09:33:38;;;;;;;40.30;31.30;;;;;;;5.32;88.59;103476.47;5052119;28;20025;-78
2022/01/23 09:36:03;;;;;;;43.45;33.25;;;;;;;5.36;88.76;103482.44;5051890;28;20029;-73
2022/01/23 09:38:28;;;;;;;44.40;31.92;;;;;;;5.37;88.61;103479.63;5052082;28;20063;-73
2022/01/23 09:40:57;;;;;;;43.47;32.50;;;;;;;5.40;89.02;103484.75;5052056;28;20306;-73
2022/01/23 09:43:23;;;;;;;44.53;31.77;;;;;;;5.42;88.91;103477.44;5051968;28;20482;-75
2022/01/23 09:45:52;;;;;;;42.92;31.75;;;;;;;5.45;88.90;103479.88;5051861;28;20029;-77
2022/01/23 09:48:18;;;;;;;43.28;30.92;;;;;;;5.48;89.13;103482.31;5052214;28;20036;-76
2022/01/23 09:50:46;;;;;;;46.80;31.05;;;;;;;5.46;88.19;103481.56;5052026;28;20104;-74
2022/01/23 09:53:12;;;;;;;43.45;31.42;;;;;;;5.49;88.37;103492.03;5052171;28;20357;-72
2022/01/23 09:55:40;;;;;;;41.85;30.80;;;;;;;5.51;88.30;103494.63;5052151;28;20464;-73
2022/01/23 09:58:05;;;;;;;45.58;32.65;;;;;;;5.54;88.44;103490.81;5051602;28;20037;-71
2022/01/23 10:00:32;;;;;;;41.53;31.58;;;;;;;5.53;88.05;103495.34;5050000;28;20036;-74
2022/01/23 10:02:58;;;;;;;48.05;33.30;;;;;;;5.56;88.31;103494.25;5051858;28;20098;-73
2022/01/23 10:05:24;;;;;;;45.38;34.80;;;;;;;5.55;87.92;103495.22;5051608;28;20032;-74
2022/01/23 10:07:51;;;;;;;48.53;33.08;;;;;;;5.58;88.43;103498.50;5050168;28;20032;-72
2022/01/23 10:10:22;;;;;;;42.40;32.70;;;;;;;5.59;88.46;103505.59;5055044;28;20207;-72
2022/01/23 10:12:50;;;;;;;42.80;32.53;;;;;;;5.60;87.94;103495.69;5055554;28;20033;-75
2022/01/23 10:15:18;;;;;;;46.85;32.60;;;;;;;5.63;87.68;103501.69;5055916;28;20083;-72
2022/01/23 10:17:43;;;;;;;44.10;32.65;;;;;;;5.62;87.75;103494.59;5054472;28;20372;-73
2022/01/23 10:20:11;;;;;;;45.45;33.20;;;;;;;5.66;87.57;103498.75;5055747;28;20036;-73
2022/01/23 10:22:40;;;;;;;47.90;34.05;;;;;;;5.72;87.16;103493.81;5055794;28;20033;-74
2022/01/23 10:25:11;;;;;;;49.13;34.85;;;;;;;5.76;87.24;103498.81;5054193;28;20544;-73
2022/01/23 10:27:53;;;;;;;;;;;;;;;5.86;88.51;103494.38;5056183;28;20206;-73
2022/01/23 10:30:22;;;;;;;53.80;35.85;;;;;;;5.80;87.19;103489.53;5054321;28;19916;-72
2022/01/23 10:32:58;;;;;;;49.95;36.67;;;;;;;5.85;87.07;103487.28;5055139;28;20087;-73
2022/01/23 10:35:24;;;;;;;62.50;43.28;;;;;;;5.84;86.91;103477.53;5054242;28;20450;-72
2022/01/23 10:37:51;;;;;;;50.50;35.03;;;;;;;5.85;86.88;103484.59;5055179;28;20103;-72
2022/01/23 10:40:34;;;;;;;49.95;36.47;;;;;;;5.89;87.16;103489.72;5054181;28;20226;-72
2022/01/23 10:48:39;;;;;;;51.08;37.97;;;;;;;6.01;86.82;103494.13;5055315;28;20087;-72
2022/01/23 10:51:20;;;;;;;48.47;33.20;;;;;;;6.06;87.43;103489.19;5054958;28;20035;-72
2022/01/23 10:54:00;;;;;;;44.40;31.83;;;;;;;6.06;86.89;103485.66;5053851;28;20384;-72
2022/01/23 10:56:27;;;;;;;42.75;30.88;;;;;;;6.00;85.76;103490.56;5053863;28;20032;-71
2022/01/23 10:58:57;;;;;;;46.20;32.25;;;;;;;5.98;85.85;103479.09;5054846;28;20384;-72
2022/01/23 11:01:23;;;;;;;44.67;32.35;;;;;;;5.92;85.46;103471.53;5052052;28;20411;-72
2022/01/23 11:04:12;;;;;;;45.60;32.92;;;;;;;5.92;86.83;103484.09;5054524;28;20032;-72
2022/01/23 11:07:01;;;;;;;42.47;31.52;;;;;;;5.96;86.04;103488.22;5054934;28;20044;-72
2022/01/23 11:09:36;;;;;;;42.97;31.83;;;;;;;5.93;86.64;103478.56;5054894;28;20452;-72
2022/01/23 11:12:15;;;;;;;44.60;31.45;;;;;;;5.96;86.87;103485.53;5054578;28;20029;-72
2022/01/23 11:17:26;;;;;;;44.22;31.92;;;;;;;6.07;86.31;103471.22;5054782;28;20044;-72
2022/01/23 11:20:01;;;;;;;39.03;29.55;;;;;;;6.08;85.51;103478.31;5054215;28;20078;-72
2022/01/23 11:22:29;;;;;;;38.08;28.30;;;;;;;6.10;85.72;103473.66;5054209;28;20116;-72
2022/01/23 11:25:07;;;;;;;44.38;32.47;;;;;;;6.14;85.72;103472.41;5054457;28;20060;-72
2022/01/23 11:27:38;;;;;;;40.15;30.42;;;;;;;6.13;85.77;103465.31;5054583;28;20040;-72
2022/01/23 11:30:08;;;;;;;41.83;29.70;;;;;;;6.18;86.23;103469.31;5054313;28;20033;-72
2022/01/23 11:32:39;;;;;;;40.45;28.83;;;;;;;6.19;84.93;103462.97;5054419;28;20028;-72
2022/01/23 11:35:12;;;;;;;38.55;28.13;;;;;;;6.23;85.00;103457.31;5054171;28;20037;-72
2022/01/23 11:37:46;;;;;;;36.88;28.08;;;;;;;6.20;84.87;103459.31;5054370;28;20376;-72
2022/01/23 11:53:58;;;;;;;38.67;27.67;;;;;;;6.28;84.49;103452.41;5053961;28;20032;-72
2022/01/23 11:56:27;;;;;;;38.57;28.27;;;;;;;6.33;84.50;103448.31;5054010;28;20037;-72
2022/01/23 11:58:54;;;;;;;37.75;26.95;;;;;;;6.34;84.85;103446.47;5052411;28;20548;-72
2022/01/23 12:01:24;;;;;;;43.65;28.30;;;;;;;6.37;84.20;103451.59;5051040;28;20056;-72
2022/01/23 12:04:16;;;;;;;35.55;26.63;;;;;;;6.42;84.76;103456.59;5052590;28;20468;-72
2022/01/23 12:06:45;;;;;;;39.05;27.55;;;;;;;6.37;84.00;103449.78;5053823;28;20460;-72
2022/01/23 12:09:10;;;;;;;38.45;29.17;;;;;;;6.34;83.81;103451.84;5053523;28;20071;-72
2022/01/23 12:11:53;;;;;;;36.83;28.08;;;;;;;6.35;84.67;103437.44;5053675;28;20029;-72
2022/01/23 12:16:52;;;;;;;36.60;26.67;;;;;;;6.41;85.00;103431.53;5053633;28;20151;-72
2022/01/23 12:19:22;;;;;;;35.67;25.02;;;;;;;6.42;84.88;103433.22;5053622;28;20029;-72
2022/01/23 12:21:51;;;;;;;35.50;26.80;;;;;;;6.43;83.69;103429.56;5053783;28;20114;-72
2022/01/23 12:24:18;;;;;;;40.38;27.35;;;;;;;6.47;84.34;103430.16;5053451;28;20878;-71
2022/01/23 12:26:45;;;;;;;35.13;27.10;;;;;;;6.47;84.87;103425.59;5053175;28;20083;-71
2022/01/23 12:29:12;;;;;;;40.58;29.08;;;;;;;6.48;84.78;103426.47;5052838;28;20025;-71
2022/01/23 12:31:38;;;;;;;39.58;29.10;;;;;;;6.49;83.93;103423.66;5053016;28;20037;-71
2022/01/23 12:34:04;;;;;;;37.72;28.10;;;;;;;6.50;83.88;103430.72;5053037;28;20032;-71
2022/01/23 12:36:31;;;;;;;41.35;28.83;;;;;;;6.46;83.79;103418.53;5051553;28;20025;-71
2022/01/23 12:39:06;;;;;;;39.25;28.25;;;;;;;6.50;84.71;103425.34;5052981;28;20599;-72
2022/01/23 12:41:35;;;;;;;38.85;27.92;;;;;;;6.54;85.02;103413.31;5053091;28;20384;-71
2022/01/23 12:44:08;;;;;;;37.30;27.92;;;;;;;6.56;84.62;103415.88;5052926;28;20039;-71
2022/01/23 12:46:35;;;;;;;37.33;26.17;;;;;;;6.56;83.70;103419.41;5053047;28;20028;-71
2022/01/23 12:49:21;;;;;;;33.33;25.42;;;;;;;6.61;84.23;103415.47;5052818;28;20067;-72
2022/01/23 12:51:50;;;;;;;35.90;26.15;;;;;;;6.58;83.82;103411.19;5052929;28;20052;-71
2022/01/23 12:54:18;;;;;;;40.33;27.42;;;;;;;6.62;84.13;103409.94;5052438;28;20044;-71
2022/01/23 12:56:44;;;;;;;35.17;26.35;;;;;;;6.62;83.86;103409.13;5052888;28;20054;-71
2022/01/23 12:59:20;;;;;;;34.15;25.95;;;;;;;6.60;82.80;103408.38;5052595;28;20029;-71
2022/01/23 13:01:46;;;;;;;36.33;26.17;;;;;;;6.63;83.73;103402.72;5050092;28;20052;-71
2022/01/23 13:04:12;;;;;;;37.38;26.27;;;;;;;6.61;82.43;103400.16;5052530;28;20070;-71
2022/01/23 13:07:00;;;;;;;39.42;26.70;;;;;;;6.61;82.84;103397.47;5052699;28;20041;-71
2022/01/23 13:15:09;;;;;;;37.83;27.35;;;;;;;6.69;83.45;103386.06;5052447;28;20099;-72
2022/01/23 13:26:28;;;;;;;38.92;26.80;;;;;;;6.68;83.19;103389.72;5052574;28;20044;-71
2022/01/23 13:31:58;;;;;;;42.97;29.25;;;;;;;6.71;82.87;103384.06;5052387;28;20036;-71
2022/01/23 13:34:24;;;;;;;38.97;28.73;;;;;;;6.69;82.89;103381.53;5052441;28;20033;-71
2022/01/23 13:37:03;;;;;;;44.80;28.67;;;;;;;6.70;82.34;103391.31;5052362;28;20305;-72
2022/01/23 13:39:33;;;;;;;39.42;28.02;;;;;;;6.72;83.23;103380.41;5052419;28;20067;-72
2022/01/23 13:42:00;;;;;;;41.70;28.88;;;;;;;6.71;83.05;103373.31;5052111;28;20495;-71
2022/01/23 13:51:13;;;;;;;45.22;31.63;;;;;;;6.75;83.19;103393.59;5056246;28;20097;-71
2022/01/23 13:58:37;;;;;;;41.47;30.73;;;;;;;6.69;82.57;103369.91;5056017;28;20059;-72
2022/01/23 14:01:17;;;;;;;;;;;;;;;6.82;84.06;103375.03;5053799;28;20112;-71
2022/01/23 14:03:43;;;;;;;39.63;29.70;;;;;;;6.72;84.01;103370.47;5056309;28;20007;-72
2022/01/23 14:06:09;;;;;;;40.95;30.13;;;;;;;6.75;82.62;103374.75;5054399;28;20556;-71
2022/01/23 14:08:34;;;;;;;41.78;30.73;;;;;;;6.73;82.75;103356.06;5056100;28;20112;-71
2022/01/23 14:10:59;;;;;;;42.08;30.70;;;;;;;6.73;82.88;103364.13;5056094;28;20067;-71
2022/01/23 14:13:25;;;;;;;39.97;30.23;;;;;;;6.71;81.97;103358.00;5055664;28;20033;-71
2022/01/23 14:15:53;;;;;;;40.70;29.98;;;;;;;6.73;82.89;103357.88;5055983;28;20024;-71
2022/01/23 14:18:27;;;;;;;41.95;31.15;;;;;;;6.74;84.09;103360.41;5055692;28;20029;-71
2022/01/23 14:20:59;;;;;;;40.88;30.00;;;;;;;6.74;84.01;103364.97;5056156;28;20427;-71
2022/01/23 14:23:25;;;;;;;;;;;;;;;6.87;84.82;103368.25;5056281;28;20037;-71
2022/01/23 14:25:53;;;;;;;40.63;30.75;;;;;;;6.76;83.06;103370.22;5056021;28;19916;-71
2022/01/23 14:28:27;;;;;;;40.53;30.35;;;;;;;6.72;82.90;103373.19;5055510;28;20108;-71
2022/01/23 14:30:59;;;;;;;40.85;30.38;;;;;;;6.67;83.19;103367.38;5055660;28;20428;-71
2022/01/23 14:33:31;;;;;;;;;;;;;;;6.81;83.54;103370.63;5056017;28;20061;-72